sensor_id;sensor_type;location;lat;lon;timestamp;pressure;altitude;pressure_sealevel;temperature;humidity
51603;BME280;37954;51.980;5.850;2023-03-25T00:01:42;99805.56;;;10.31;79.67
51603;BME280;37954;51.980;5.850;2023-03-25T00:05:54;99804.25;;;10.34;79.57
51603;BME280;37954;51.980;5.850;2023-03-25T00:10:07;99795.53;;;10.27;79.37
51603;BME280;37954;51.980;5.850;2023-03-25T00:14:19;99797.84;;;10.35;79.57
51603;BME280;37954;51.980;5.850;2023-03-25T00:18:31;99814.75;;;10.35;79.61
51603;BME280;37954;51.980;5.850;2023-03-25T00:22:44;99802.06;;;10.31;79.89
51603;BME280;37954;51.980;5.850;2023-03-25T00:26:55;99789.41;;;10.15;80.26
51603;BME280;37954;51.980;5.850;2023-03-25T00:31:11;99786.09;;;10.24;79.99
51603;BME280;37954;51.980;5.850;2023-03-25T00:35:23;99800.19;;;10.31;80.05
51603;BME280;37954;51.980;5.850;2023-03-25T00:39:36;99791.31;;;10.31;79.92
51603;BME280;37954;51.980;5.850;2023-03-25T00:43:50;99798.56;;;10.30;79.96
51603;BME280;37954;51.980;5.850;2023-03-25T00:48:03;99789.69;;;10.30;79.84
51603;BME280;37954;51.980;5.850;2023-03-25T00:52:18;99791.56;;;10.29;79.92
51603;BME280;37954;51.980;5.850;2023-03-25T00:56:30;99788.88;;;10.29;79.84
51603;BME280;37954;51.980;5.850;2023-03-25T01:00:42;99801.25;;;10.30;79.91
51603;BME280;37954;51.980;5.850;2023-03-25T01:04:53;99783.13;;;10.21;79.79
51603;BME280;37954;51.980;5.850;2023-03-25T01:09:07;99789.69;;;10.30;79.66
51603;BME280;37954;51.980;5.850;2023-03-25T01:13:20;99790.41;;;10.25;79.43
51603;BME280;37954;51.980;5.850;2023-03-25T01:17:33;99777.81;;;10.26;79.20
51603;BME280;37954;51.980;5.850;2023-03-25T01:21:46;99782.03;;;10.22;78.95
51603;BME280;37954;51.980;5.850;2023-03-25T01:25:58;99769.50;;;10.10;78.62
51603;BME280;37954;51.980;5.850;2023-03-25T01:30:11;99772.63;;;10.19;78.86
51603;BME280;37954;51.980;5.850;2023-03-25T01:34:24;99794.47;;;10.28;78.45
51603;BME280;37954;51.980;5.850;2023-03-25T01:38:37;99781.69;;;10.18;78.23
51603;BME280;37954;51.980;5.850;2023-03-25T01:42:49;99796.03;;;10.24;78.29
51603;BME280;37954;51.980;5.850;2023-03-25T01:47:02;99789.59;;;10.25;78.15
51603;BME280;37954;51.980;5.850;2023-03-25T01:51:17;99781.50;;;10.20;77.82
51603;BME280;37954;51.980;5.850;2023-03-25T01:55:32;99779.09;;;10.23;77.80
51603;BME280;37954;51.980;5.850;2023-03-25T01:59:45;99786.91;;;10.25;77.68
51603;BME280;37954;51.980;5.850;2023-03-25T02:03:58;99769.34;;;10.17;77.93
51603;BME280;37954;51.980;5.850;2023-03-25T02:08:21;99770.50;;;10.21;78.87
51603;BME280;37954;51.980;5.850;2023-03-25T02:12:33;99772.41;;;10.09;79.02
51603;BME280;37954;51.980;5.850;2023-03-25T02:40:05;99769.91;;;9.86;82.21
51603;BME280;37954;51.980;5.850;2023-03-25T02:49:11;99769.06;;;9.68;83.87
51603;BME280;37954;51.980;5.850;2023-03-25T02:53:28;99770.41;;;9.71;84.20
51603;BME280;37954;51.980;5.850;2023-03-25T02:57:45;99756.03;;;9.60;84.61
51603;BME280;37954;51.980;5.850;2023-03-25T03:01:59;99752.31;;;9.61;84.59
51603;BME280;37954;51.980;5.850;2023-03-25T03:06:16;99754.88;;;9.56;85.19
51603;BME280;37954;51.980;5.850;2023-03-25T03:10:41;99744.91;;;9.52;85.57
51603;BME280;37954;51.980;5.850;2023-03-25T03:15:07;99751.88;;;9.53;85.60
51603;BME280;37954;51.980;5.850;2023-03-25T03:23:55;99750.75;;;9.49;86.40
51603;BME280;37954;51.980;5.850;2023-03-25T03:28:28;99749.94;;;9.48;86.56
51603;BME280;37954;51.980;5.850;2023-03-25T03:37:23;99759.84;;;9.36;86.86
51603;BME280;37954;51.980;5.850;2023-03-25T03:41:40;99751.00;;;9.35;87.33
51603;BME280;37954;51.980;5.850;2023-03-25T03:46:01;99742.78;;;9.25;87.60
51603;BME280;37954;51.980;5.850;2023-03-25T03:50:23;99760.03;;;9.29;87.96
51603;BME280;37954;51.980;5.850;2023-03-25T03:54:44;99759.22;;;9.29;88.33
51603;BME280;37954;51.980;5.850;2023-03-25T03:58:58;99765.50;;;9.34;88.50
51603;BME280;37954;51.980;5.850;2023-03-25T04:03:22;99765.97;;;9.31;88.42
51603;BME280;37954;51.980;5.850;2023-03-25T04:07:41;99761.50;;;9.37;88.06
51603;BME280;37954;51.980;5.850;2023-03-25T04:12:18;99748.19;;;9.42;88.11
51603;BME280;37954;51.980;5.850;2023-03-25T04:16:31;99754.47;;;9.48;87.78
51603;BME280;37954;51.980;5.850;2023-03-25T04:20:46;99745.16;;;9.38;87.76
51603;BME280;37954;51.980;5.850;2023-03-25T04:24:59;99741.78;;;9.43;87.59
51603;BME280;37954;51.980;5.850;2023-03-25T04:29:11;99745.84;;;9.46;88.00
51603;BME280;37954;51.980;5.850;2023-03-25T04:33:24;99741.78;;;9.43;87.77
51603;BME280;37954;51.980;5.850;2023-03-25T04:37:35;99741.78;;;9.43;87.52
51603;BME280;37954;51.980;5.850;2023-03-25T04:41:51;99723.97;;;9.37;87.06
51603;BME280;37954;51.980;5.850;2023-03-25T04:46:13;99741.88;;;9.48;87.02
51603;BME280;37954;51.980;5.850;2023-03-25T04:50:27;99733.75;;;9.43;87.31
51603;BME280;37954;51.980;5.850;2023-03-25T04:54:39;99716.75;;;9.37;87.08
51603;BME280;37954;51.980;5.850;2023-03-25T04:58:51;99716.75;;;9.37;86.99
51603;BME280;37954;51.980;5.850;2023-03-25T05:03:03;99696.75;;;9.28;86.59
51603;BME280;37954;51.980;5.850;2023-03-25T05:07:15;99712.06;;;9.45;86.72
51603;BME280;37954;51.980;5.850;2023-03-25T05:11:30;99706.25;;;9.36;86.43
51603;BME280;37954;51.980;5.850;2023-03-25T05:15:42;99707.25;;;9.30;86.04
51603;BME280;37954;51.980;5.850;2023-03-25T05:19:54;99710.25;;;9.33;86.11
51603;BME280;37954;51.980;5.850;2023-03-25T05:24:10;99714.22;;;9.31;85.96
51603;BME280;37954;51.980;5.850;2023-03-25T05:28:22;99721.72;;;9.46;85.57
51603;BME280;37954;51.980;5.850;2023-03-25T05:32:33;99718.91;;;9.52;85.22
51603;BME280;37954;51.980;5.850;2023-03-25T05:36:45;99715.16;;;9.53;84.83
51603;BME280;37954;51.980;5.850;2023-03-25T05:40:56;99734.06;;;9.47;84.91
51603;BME280;37954;51.980;5.850;2023-03-25T05:45:10;99741.78;;;9.43;85.06
51603;BME280;37954;51.980;5.850;2023-03-25T05:49:22;99763.31;;;9.48;84.99
51603;BME280;37954;51.980;5.850;2023-03-25T05:53:33;99751.44;;;9.44;85.11
51603;BME280;37954;51.980;5.850;2023-03-25T05:57:45;99752.25;;;9.45;84.97
51603;BME280;37954;51.980;5.850;2023-03-25T06:01:58;99757.38;;;9.46;84.99
51603;BME280;37954;51.980;5.850;2023-03-25T06:06:13;99775.91;;;9.48;85.17
51603;BME280;37954;51.980;5.850;2023-03-25T06:10:25;99758.91;;;9.42;85.41
51603;BME280;37954;51.980;5.850;2023-03-25T06:14:37;99761.06;;;9.28;85.51
51603;BME280;37954;51.980;5.850;2023-03-25T06:18:49;99774.34;;;9.35;86.10
51603;BME280;37954;51.980;5.850;2023-03-25T06:23:06;99787.81;;;9.40;86.20
51603;BME280;37954;51.980;5.850;2023-03-25T06:27:18;99778.53;;;9.31;86.75
51603;BME280;37954;51.980;5.850;2023-03-25T06:31:30;99766.44;;;9.28;86.89
51603;BME280;37954;51.980;5.850;2023-03-25T06:35:46;99790.25;;;9.41;87.30
51603;BME280;37954;51.980;5.850;2023-03-25T06:40:04;99770.03;;;9.34;87.17
51603;BME280;37954;51.980;5.850;2023-03-25T06:44:17;99775.13;;;9.35;86.97
51603;BME280;37954;51.980;5.850;2023-03-25T06:49:10;99799.06;;;9.54;86.44
51603;BME280;37954;51.980;5.850;2023-03-25T06:53:22;99805.25;;;9.54;86.28
51603;BME280;37954;51.980;5.850;2023-03-25T06:57:33;99805.22;;;9.66;86.11
51603;BME280;37954;51.980;5.850;2023-03-25T07:01:46;99807.41;;;9.69;85.44
51603;BME280;37954;51.980;5.850;2023-03-25T07:05:58;99802.47;;;9.77;85.45
51603;BME280;37954;51.980;5.850;2023-03-25T07:10:12;99792.16;;;9.86;84.72
51603;BME280;37954;51.980;5.850;2023-03-25T07:14:24;99788.06;;;10.29;84.41
51603;BME280;37954;51.980;5.850;2023-03-25T07:18:36;99790.56;;;10.52;83.50
51603;BME280;37954;51.980;5.850;2023-03-25T07:22:48;99794.22;;;10.63;82.78
51603;BME280;37954;51.980;5.850;2023-03-25T07:26:59;99799.94;;;10.50;81.80
51603;BME280;37954;51.980;5.850;2023-03-25T07:31:14;99807.91;;;10.28;81.81
51603;BME280;37954;51.980;5.850;2023-03-25T07:35:26;99818.69;;;10.16;81.88
51603;BME280;37954;51.980;5.850;2023-03-25T07:39:38;99816.63;;;10.06;82.76
51603;BME280;37954;51.980;5.850;2023-03-25T07:43:50;99809.16;;;9.92;83.17
51603;BME280;37954;51.980;5.850;2023-03-25T07:48:08;99824.44;;;9.91;83.44
51603;BME280;37954;51.980;5.850;2023-03-25T07:52:24;99818.59;;;9.94;83.35
51603;BME280;37954;51.980;5.850;2023-03-25T07:56:37;99820.13;;;9.90;83.73
51603;BME280;37954;51.980;5.850;2023-03-25T08:00:48;99819.97;;;9.97;84.54
51603;BME280;37954;51.980;5.850;2023-03-25T08:05:00;99826.06;;;10.09;84.61
51603;BME280;37954;51.980;5.850;2023-03-25T08:09:15;99817.78;;;10.10;84.57
51603;BME280;37954;51.980;5.850;2023-03-25T08:13:27;99840.28;;;10.21;84.48
51603;BME280;37954;51.980;5.850;2023-03-25T08:17:40;99839.09;;;10.17;84.50
51603;BME280;37954;51.980;5.850;2023-03-25T08:21:52;99844.13;;;10.13;84.75
51603;BME280;37954;51.980;5.850;2023-03-25T08:26:04;99817.44;;;10.19;85.23
51603;BME280;37954;51.980;5.850;2023-03-25T08:30:16;99831.34;;;10.49;85.06
51603;BME280;37954;51.980;5.850;2023-03-25T08:34:28;99836.75;;;10.88;84.29
51603;BME280;37954;51.980;5.850;2023-03-25T08:38:40;99846.56;;;10.99;83.60
51603;BME280;37954;51.980;5.850;2023-03-25T08:42:53;99846.44;;;11.10;82.61
51603;BME280;37954;51.980;5.850;2023-03-25T08:47:05;99845.53;;;11.22;82.45
51603;BME280;37954;51.980;5.850;2023-03-25T08:51:17;99836.22;;;12.00;81.98
51603;BME280;37954;51.980;5.850;2023-03-25T08:55:29;99846.47;;;12.67;80.19
51603;BME280;37954;51.980;5.850;2023-03-25T08:59:40;99850.81;;;12.73;77.99
51603;BME280;37954;51.980;5.850;2023-03-25T09:03:52;99855.09;;;12.69;77.70
51603;BME280;37954;51.980;5.850;2023-03-25T09:08:06;99866.59;;;12.54;77.04
51603;BME280;37954;51.980;5.850;2023-03-25T09:12:20;99841.81;;;11.93;77.53
51603;BME280;37954;51.980;5.850;2023-03-25T09:16:32;99835.25;;;11.62;78.03
51603;BME280;37954;51.980;5.850;2023-03-25T09:20:44;99852.84;;;11.48;79.67
51603;BME280;37954;51.980;5.850;2023-03-25T09:24:59;99845.16;;;11.57;80.13
51603;BME280;37954;51.980;5.850;2023-03-25T09:29:11;99824.56;;;11.45;79.87
51603;BME280;37954;51.980;5.850;2023-03-25T09:33:23;99857.88;;;11.39;80.17
51603;BME280;37954;51.980;5.850;2023-03-25T09:37:35;99855.72;;;11.20;80.97
51603;BME280;37954;51.980;5.850;2023-03-25T09:46:23;99864.22;;;11.33;82.63
51603;BME280;37954;51.980;5.850;2023-03-25T09:50:35;99885.59;;;11.45;82.29
51603;BME280;37954;51.980;5.850;2023-03-25T09:54:57;99871.38;;;11.23;82.11
51603;BME280;37954;51.980;5.850;2023-03-25T09:59:13;99863.59;;;11.26;83.38
51603;BME280;37954;51.980;5.850;2023-03-25T10:12:36;99891.69;;;14.32;76.91
51603;BME280;37954;51.980;5.850;2023-03-25T10:17:28;99878.22;;;14.77;74.69
51603;BME280;37954;51.980;5.850;2023-03-25T10:21:57;99878.78;;;14.69;70.88
51603;BME280;37954;51.980;5.850;2023-03-25T10:26:19;99880.41;;;14.50;71.23
51603;BME280;37954;51.980;5.850;2023-03-25T10:30:38;99875.25;;;14.48;71.78
51603;BME280;37954;51.980;5.850;2023-03-25T10:34:53;99865.72;;;14.10;72.03
51603;BME280;37954;51.980;5.850;2023-03-25T10:39:13;99886.84;;;13.41;71.68
51603;BME280;37954;51.980;5.850;2023-03-25T10:43:39;99892.25;;;13.04;73.31
51603;BME280;37954;51.980;5.850;2023-03-25T10:47:53;99891.59;;;12.86;75.22
51603;BME280;37954;51.980;5.850;2023-03-25T10:52:08;99904.13;;;12.66;76.13
51603;BME280;37954;51.980;5.850;2023-03-25T10:56:30;99903.59;;;12.37;77.12
51603;BME280;37954;51.980;5.850;2023-03-25T11:00:43;99901.66;;;12.32;77.67
51603;BME280;37954;51.980;5.850;2023-03-25T11:04:57;99902.09;;;12.46;78.45
51603;BME280;37954;51.980;5.850;2023-03-25T11:13:29;99906.16;;;12.22;78.08
51603;BME280;37954;51.980;5.850;2023-03-25T11:17:43;99914.31;;;12.32;78.20
51603;BME280;37954;51.980;5.850;2023-03-25T11:22:02;99915.38;;;12.31;77.54
51603;BME280;37954;51.980;5.850;2023-03-25T11:26:20;99907.59;;;12.29;78.05
51603;BME280;37954;51.980;5.850;2023-03-25T11:30:32;99909.16;;;12.25;77.75
51603;BME280;37954;51.980;5.850;2023-03-25T11:34:49;99913.31;;;12.11;78.23
51603;BME280;37954;51.980;5.850;2023-03-25T11:43:35;99915.66;;;12.29;78.47
51603;BME280;37954;51.980;5.850;2023-03-25T11:47:48;99920.13;;;12.77;77.33
51603;BME280;37954;51.980;5.850;2023-03-25T11:52:08;99929.59;;;12.85;74.84
51603;BME280;37954;51.980;5.850;2023-03-25T11:56:29;99922.13;;;13.29;72.33
51603;BME280;37954;51.980;5.850;2023-03-25T12:00:50;99914.66;;;13.46;71.53
51603;BME280;37954;51.980;5.850;2023-03-25T12:09:18;99900.41;;;13.56;69.23
51603;BME280;37954;51.980;5.850;2023-03-25T12:18:33;99894.00;;;13.77;68.14
51603;BME280;37954;51.980;5.850;2023-03-25T12:22:59;99888.09;;;13.90;69.03
51603;BME280;37954;51.980;5.850;2023-03-25T12:27:31;99897.41;;;14.45;68.73
51603;BME280;37954;51.980;5.850;2023-03-25T12:32:00;99896.28;;;14.26;67.43
51603;BME280;37954;51.980;5.850;2023-03-25T12:36:21;99888.63;;;13.82;67.09
51603;BME280;37954;51.980;5.850;2023-03-25T13:07:27;99882.88;;;11.01;76.08
51603;BME280;37954;51.980;5.850;2023-03-25T13:11:50;99908.25;;;11.49;78.28
51603;BME280;37954;51.980;5.850;2023-03-25T13:16:07;99903.19;;;11.96;79.34
51603;BME280;37954;51.980;5.850;2023-03-25T13:20:21;99913.25;;;12.60;78.64
51603;BME280;37954;51.980;5.850;2023-03-25T13:24:42;99914.78;;;12.87;77.45
51603;BME280;37954;51.980;5.850;2023-03-25T13:29:00;99908.84;;;12.85;75.42
51603;BME280;37954;51.980;5.850;2023-03-25T13:33:16;99928.75;;;12.79;73.82
51603;BME280;37954;51.980;5.850;2023-03-25T13:38:00;99916.72;;;12.92;72.81
51603;BME280;37954;51.980;5.850;2023-03-25T13:42:21;99915.09;;;12.91;71.94
51603;BME280;37954;51.980;5.850;2023-03-25T13:46:40;99920.28;;;13.03;71.66
51603;BME280;37954;51.980;5.850;2023-03-25T13:50:54;99908.69;;;12.97;70.39
51603;BME280;37954;51.980;5.850;2023-03-25T13:55:17;99893.34;;;13.03;70.15
51603;BME280;37954;51.980;5.850;2023-03-25T14:13:22;99952.38;;;13.04;67.44
51603;BME280;37954;51.980;5.850;2023-03-25T14:17:35;99946.84;;;12.84;68.04
51603;BME280;37954;51.980;5.850;2023-03-25T14:21:49;99938.81;;;12.89;68.65
51603;BME280;37954;51.980;5.850;2023-03-25T14:26:02;99947.75;;;13.00;68.01
51603;BME280;37954;51.980;5.850;2023-03-25T14:30:21;99955.78;;;12.89;68.21
51603;BME280;37954;51.980;5.850;2023-03-25T14:34:34;99955.47;;;12.54;68.98
51603;BME280;37954;51.980;5.850;2023-03-25T14:38:52;99983.28;;;12.33;69.64
51603;BME280;37954;51.980;5.850;2023-03-25T14:43:24;100005.22;;;11.76;71.22
51603;BME280;37954;51.980;5.850;2023-03-25T14:47:36;99982.69;;;11.27;72.79
51603;BME280;37954;51.980;5.850;2023-03-25T14:52:00;99979.94;;;11.38;75.69
51603;BME280;37954;51.980;5.850;2023-03-25T14:56:16;99963.53;;;11.40;76.17
51603;BME280;37954;51.980;5.850;2023-03-25T15:00:32;99968.19;;;11.66;76.95
51603;BME280;37954;51.980;5.850;2023-03-25T15:04:51;99984.13;;;11.90;76.85
51603;BME280;37954;51.980;5.850;2023-03-25T15:09:06;99973.97;;;11.97;76.06
51603;BME280;37954;51.980;5.850;2023-03-25T15:13:29;99982.59;;;12.20;75.43
51603;BME280;37954;51.980;5.850;2023-03-25T17:09:16;100106.72;;;11.80;71.94
51603;BME280;37954;51.980;5.850;2023-03-25T21:03:14;100267.53;;;8.80;87.62
51603;BME280;37954;51.980;5.850;2023-03-25T21:09:13;100284.25;;;8.76;87.55
51603;BME280;37954;51.980;5.850;2023-03-25T21:44:06;100305.16;;;9.03;90.37
51603;BME280;37954;51.980;5.850;2023-03-25T21:48:26;100272.78;;;8.87;89.99
51603;BME280;37954;51.980;5.850;2023-03-25T21:52:59;100311.50;;;9.09;90.40
51603;BME280;37954;51.980;5.850;2023-03-25T21:57:35;100293.28;;;8.99;90.52
51603;BME280;37954;51.980;5.850;2023-03-25T22:01:49;100310.38;;;9.17;90.46
51603;BME280;37954;51.980;5.850;2023-03-25T22:06:11;100313.06;;;9.17;90.51
51603;BME280;37954;51.980;5.850;2023-03-25T22:10:24;100316.09;;;9.20;90.56
51603;BME280;37954;51.980;5.850;2023-03-25T22:14:37;100328.00;;;9.24;90.74
51603;BME280;37954;51.980;5.850;2023-03-25T22:18:48;100318.66;;;9.15;90.65
51603;BME280;37954;51.980;5.850;2023-03-25T22:23:00;100316.56;;;9.17;90.71
51603;BME280;37954;51.980;5.850;2023-03-25T22:27:12;100323.91;;;9.22;90.97
51603;BME280;37954;51.980;5.850;2023-03-25T22:31:26;100314.56;;;9.13;90.76
51603;BME280;37954;51.980;5.850;2023-03-25T22:35:41;100309.25;;;9.06;90.94
51603;BME280;37954;51.980;5.850;2023-03-25T22:39:53;100337.84;;;9.12;90.93
51603;BME280;37954;51.980;5.850;2023-03-25T22:44:06;100320.94;;;8.93;90.50
51603;BME280;37954;51.980;5.850;2023-03-25T22:48:18;100357.56;;;9.18;90.72
51603;BME280;37954;51.980;5.850;2023-03-25T22:52:29;100338.50;;;9.07;90.90
51603;BME280;37954;51.980;5.850;2023-03-25T22:56:43;100322.28;;;9.02;90.96
51603;BME280;37954;51.980;5.850;2023-03-25T23:00:57;100373.72;;;9.29;91.29
51603;BME280;37954;51.980;5.850;2023-03-25T23:05:09;100365.47;;;9.31;91.04
51603;BME280;37954;51.980;5.850;2023-03-25T23:09:21;100354.44;;;9.21;91.08
51603;BME280;37954;51.980;5.850;2023-03-25T23:13:51;100373.78;;;9.23;91.00
51603;BME280;37954;51.980;5.850;2023-03-25T23:18:04;100350.25;;;9.06;90.97
51603;BME280;37954;51.980;5.850;2023-03-25T23:22:16;100368.75;;;9.15;90.53
51603;BME280;37954;51.980;5.850;2023-03-25T23:26:32;100339.91;;;8.92;90.71
51603;BME280;37954;51.980;5.850;2023-03-25T23:30:47;100347.06;;;8.98;90.71
51603;BME280;37954;51.980;5.850;2023-03-25T23:34:59;100342.16;;;8.95;90.68
51603;BME280;37954;51.980;5.850;2023-03-25T23:39:15;100341.19;;;8.89;90.33
51603;BME280;37954;51.980;5.850;2023-03-25T23:43:28;100330.09;;;8.86;90.53
51603;BME280;37954;51.980;5.850;2023-03-25T23:47:40;100319.91;;;8.76;90.36
51603;BME280;37954;51.980;5.850;2023-03-25T23:51:52;100354.13;;;8.92;90.39
51603;BME280;37954;51.980;5.850;2023-03-25T23:56:05;100360.47;;;8.98;90.05
